251950Z 16003KT CAVOK 11/09 Q1026=

251730Z 2518/2603 16010KT CAVOK BECMG 2518/2521 32005KT=

Aktuell METAR/TAF ESNU/UME

Källa: Luftfartsverket (aro.lfv.se)